Time;durP1;ratioP1;P1;durP2;ratioP2;P2;SDS_P1;SDS_P2;PMS_P1;PMS_P2;Temp;Humidity;BMP_temperature;BMP_pressure;BME280_temperature;BME280_humidity;BME280_pressure;Samples;Min_cycle;Max_cycle;Signal;HPM_P1;HPM_P2
2022/05/26 00:00:28;;;;;;;6.20;4.47;;;;;;;13.61;87.47;101403.75;5009188;28;20222;-72
2022/05/26 00:02:54;;;;;;;5.63;4.00;;;;;;;13.63;87.54;101403.78;5009206;28;20203;-72
2022/05/26 00:05:19;;;;;;;5.73;4.03;;;;;;;13.62;86.84;101404.63;5009485;28;20202;-72
2022/05/26 00:07:44;;;;;;;7.87;3.83;;;;;;;13.65;86.80;101405.53;5009025;28;20207;-72
2022/05/26 00:10:11;;;;;;;6.43;3.80;;;;;;;13.64;86.89;101401.22;5009346;28;20233;-72
2022/05/26 00:12:36;;;;;;;6.77;3.80;;;;;;;13.65;86.27;101402.97;5007648;28;20241;-72
2022/05/26 00:15:03;;;;;;;6.27;3.73;;;;;;;13.66;86.33;101407.25;5010158;28;20183;-72
2022/05/26 00:17:28;;;;;;;7.80;4.17;;;;;;;13.66;86.66;101396.97;5012621;28;20575;-72
2022/05/26 00:19:54;;;;;;;4.63;3.77;;;;;;;13.67;86.00;101384.97;5008438;28;20212;-72
2022/05/26 00:22:20;;;;;;;7.37;3.83;;;;;;;13.69;85.53;101389.28;5015498;28;20726;-72
2022/05/26 00:24:45;;;;;;;7.13;3.60;;;;;;;13.69;85.96;101383.28;5012486;28;20199;-72
2022/05/26 00:27:11;;;;;;;6.47;3.57;;;;;;;13.69;85.69;101386.72;5012901;28;20207;-72
2022/05/26 00:29:37;;;;;;;5.47;3.50;;;;;;;13.72;84.79;101388.47;5011212;28;20213;-72
2022/05/26 00:32:02;;;;;;;4.03;3.57;;;;;;;13.73;84.84;101385.06;5012825;28;20195;-72
2022/05/26 00:34:28;;;;;;;8.53;4.30;;;;;;;13.74;84.89;101387.66;5012413;28;20183;-72
2022/05/26 00:36:53;;;;;;;6.07;4.13;;;;;;;13.77;85.01;101391.97;5012598;28;20210;-72
2022/05/26 00:39:22;;;;;;;5.17;3.53;;;;;;;13.79;84.60;101387.72;5007859;28;20222;-72
2022/05/26 00:41:52;;;;;;;6.33;3.60;;;;;;;13.79;84.50;101387.72;4991381;28;20253;-72
2022/05/26 00:44:18;;;;;;;5.10;3.57;;;;;;;13.82;83.60;101388.66;5002320;28;20194;-72
2022/05/26 00:46:53;;;;;;;4.87;3.77;;;;;;;13.83;83.91;101385.22;4994302;28;20652;-72
2022/05/26 00:49:33;;;;;;;5.93;4.10;;;;;;;13.86;83.91;101390.41;5011379;28;20167;-72
2022/05/26 00:51:59;;;;;;;5.17;3.93;;;;;;;13.87;83.98;101384.44;5012042;28;20205;-72
2022/05/26 00:54:25;;;;;;;5.53;3.80;;;;;;;13.88;84.24;101385.28;5012398;28;20762;-72
2022/05/26 00:57:03;;;;;;;7.90;4.00;;;;;;;13.91;83.22;101386.19;5011934;28;20595;-72
2022/05/26 01:00:00;;;;;;;5.50;3.90;;;;;;;13.93;83.77;101389.66;5012607;28;20635;-72
2022/05/26 01:02:33;;;;;;;6.10;4.07;;;;;;;13.93;84.36;101391.34;5012268;28;20202;-72
2022/05/26 01:05:03;;;;;;;7.20;4.17;;;;;;;13.94;83.69;101396.53;5012474;28;20187;-72
2022/05/26 01:07:33;;;;;;;4.40;4.00;;;;;;;13.94;83.67;101393.06;5011830;28;20243;-72
2022/05/26 01:09:59;;;;;;;5.17;3.83;;;;;;;13.97;83.49;101398.28;5010998;28;20171;-72
2022/05/26 01:12:24;;;;;;;5.53;4.07;;;;;;;14.01;82.87;101394.91;5012277;28;20238;-72
2022/05/26 01:14:56;;;;;;;5.60;4.13;;;;;;;14.02;83.64;101388.91;5011795;28;20191;-72
2022/05/26 01:17:43;;;;;;;5.60;4.27;;;;;;;14.03;83.28;101385.47;5013781;28;20295;-72
2022/05/26 01:20:19;;;;;;;6.37;4.40;;;;;;;14.04;83.71;101400.97;5011634;28;20607;-72
2022/05/26 01:23:06;;;;;;;5.03;4.47;;;;;;;14.03;83.83;101388.94;5012264;28;20193;-72
2022/05/26 01:25:43;;;;;;;5.97;4.37;;;;;;;14.04;83.42;101387.25;4992051;28;20168;-72
2022/05/26 01:28:46;;;;;;;6.70;4.67;;;;;;;14.04;83.44;101372.63;5005324;28;20252;-72
2022/05/26 01:31:35;;;;;;;5.27;4.77;;;;;;;14.08;82.39;101382.13;5010356;28;20687;-72
2022/05/26 01:34:10;;;;;;;5.93;4.63;;;;;;;14.08;83.15;101397.59;5011898;28;20172;-72
2022/05/26 01:36:43;;;;;;;6.73;5.07;;;;;;;14.09;82.93;101391.59;5009939;28;20265;-72
2022/05/26 01:39:27;;;;;;;6.70;4.33;;;;;;;14.11;83.54;101396.78;5010217;28;20760;-72
2022/05/26 01:42:15;;;;;;;6.57;4.63;;;;;;;14.12;83.36;101394.22;5011305;28;20183;-72
2022/05/26 01:45:03;;;;;;;9.03;4.77;;;;;;;14.16;82.39;101403.72;5011741;28;20195;-72
2022/05/26 01:47:59;;;;;;;6.07;4.23;;;;;;;14.18;82.57;101394.28;5009567;28;20302;-72
2022/05/26 01:50:33;;;;;;;9.40;5.00;;;;;;;14.19;82.86;101400.31;4993792;28;20622;-72
2022/05/26 01:53:10;;;;;;;6.97;4.97;;;;;;;14.20;82.90;101402.06;5010855;28;20224;-72
2022/05/26 01:55:55;;;;;;;6.67;4.93;;;;;;;14.22;83.31;101400.41;4991842;28;20180;-72
2022/05/26 01:58:26;;;;;;;6.53;5.57;;;;;;;14.23;83.56;101384.09;5006654;28;20188;-72
2022/05/26 02:00:53;;;;;;;8.70;6.43;;;;;;;14.26;83.55;101397.00;5011432;28;20211;-72
2022/05/26 02:03:22;;;;;;;8.50;6.00;;;;;;;14.26;83.76;101389.28;5009832;28;20203;-72
2022/05/26 02:05:52;;;;;;;7.03;6.20;;;;;;;14.24;83.39;101391.84;5009449;28;20283;-72
2022/05/26 02:08:25;;;;;;;9.87;7.50;;;;;;;14.21;83.98;101386.66;5011337;28;20727;-72
2022/05/26 02:10:59;;;;;;;8.17;6.90;;;;;;;14.23;83.60;101389.25;5010707;28;20812;-72
2022/05/26 02:13:41;;;;;;;8.47;7.57;;;;;;;14.23;84.18;101386.69;5011419;28;20202;-72
2022/05/26 02:16:33;;;;;;;10.63;7.67;;;;;;;14.20;84.12;101382.34;5010710;28;20575;-72
2022/05/26 02:19:07;;;;;;;8.30;7.03;;;;;;;14.20;84.66;101387.50;5011003;28;20199;-72
2022/05/26 02:21:44;;;;;;;10.13;7.30;;;;;;;14.20;84.38;101391.75;5010478;28;20183;-72
2022/05/26 02:24:20;;;;;;;8.27;6.73;;;;;;;14.19;84.79;101387.44;5006192;28;20828;-72
2022/05/26 02:26:46;;;;;;;9.27;7.27;;;;;;;14.16;84.89;101388.28;5005598;28;20210;-72
2022/05/26 02:31:56;;;;;;;9.43;7.63;;;;;;;14.16;85.28;101389.97;4999527;28;20195;-72
2022/05/26 02:34:22;;;;;;;9.50;7.23;;;;;;;14.12;85.30;101396.78;5025546;28;20226;-72
2022/05/26 02:36:53;;;;;;;10.03;7.87;;;;;;;14.13;84.77;101403.66;5005501;28;20574;-72
2022/05/26 02:39:18;;;;;;;9.63;8.03;;;;;;;14.10;84.80;101395.03;5001966;28;20195;-72
2022/05/26 02:41:44;;;;;;;10.90;7.27;;;;;;;14.10;85.01;101400.19;5009211;28;20683;-72
2022/05/26 02:44:10;;;;;;;8.90;7.30;;;;;;;14.11;85.69;101404.50;5010118;28;20187;-72
2022/05/26 02:47:13;;;;;;;9.73;8.10;;;;;;;14.09;85.67;101401.88;5010100;28;20218;-72
2022/05/26 02:50:06;;;;;;;9.40;8.40;;;;;;;14.10;85.53;101400.19;4990356;28;20181;-72
2022/05/26 02:52:47;;;;;;;10.27;8.13;;;;;;;14.10;85.28;101402.78;4989677;28;20188;-72
2022/05/26 02:55:40;;;;;;;13.07;9.50;;;;;;;14.11;85.59;101401.91;4990226;28;20172;-72
2022/05/26 02:58:39;;;;;;;15.80;9.80;;;;;;;14.07;85.85;101406.16;4992596;28;20654;-72
2022/05/26 03:01:29;;;;;;;11.50;8.63;;;;;;;14.08;86.11;101394.16;5009794;28;20677;-72
2022/05/26 03:04:14;;;;;;;10.53;9.30;;;;;;;14.05;85.88;101397.53;5010192;28;20637;-72
2022/05/26 03:06:54;;;;;;;10.63;9.57;;;;;;;14.06;86.15;101406.13;5009696;28;20210;-72
2022/05/26 03:09:20;;;;;;;9.53;8.57;;;;;;;14.04;86.31;101403.53;5010159;28;20682;-72
2022/05/26 03:11:57;;;;;;;12.00;9.20;;;;;;;14.04;86.32;101402.69;5009638;28;20858;-72
2022/05/26 03:14:23;;;;;;;11.30;9.30;;;;;;;14.04;86.71;101405.28;5008712;28;20206;-73
2022/05/26 03:16:49;;;;;;;12.63;9.70;;;;;;;14.05;86.98;101404.41;5009562;28;20210;-72
2022/05/26 03:19:14;;;;;;;9.87;8.97;;;;;;;14.03;86.59;101399.25;5009803;28;20198;-72
2022/05/26 03:21:40;;;;;;;13.30;10.10;;;;;;;14.01;86.92;101400.94;5009548;28;20664;-72
2022/05/26 03:24:06;;;;;;;12.03;9.83;;;;;;;13.98;87.11;101405.16;5009933;28;20183;-72
2022/05/26 03:26:32;;;;;;;14.43;10.23;;;;;;;13.97;87.46;101406.88;5005359;28;20254;-72
2022/05/26 03:28:57;;;;;;;12.13;10.93;;;;;;;13.96;87.12;101405.16;4990178;28;20216;-72
2022/05/26 03:31:23;;;;;;;15.17;10.20;;;;;;;13.99;87.16;101406.91;4993175;28;20238;-72
2022/05/26 03:42:00;;;;;;;11.93;10.73;;;;;;;13.99;87.57;101409.50;5009817;28;20224;-72
2022/05/26 03:44:28;;;;;;;12.13;10.83;;;;;;;14.01;87.66;101420.66;5009267;28;20233;-72
2022/05/26 03:46:53;;;;;;;12.27;10.07;;;;;;;14.04;86.88;101431.88;5009616;28;20309;-72
2022/05/26 03:49:19;;;;;;;11.43;10.23;;;;;;;14.03;87.05;101424.13;5010636;28;20266;-72
2022/05/26 03:51:44;;;;;;;11.33;10.00;;;;;;;14.04;86.90;101421.56;5013420;28;20187;-72
2022/05/26 03:54:09;;;;;;;11.53;10.33;;;;;;;14.02;87.12;101425.84;5013670;28;20193;-72
2022/05/26 03:56:35;;;;;;;11.40;10.30;;;;;;;14.07;86.64;101437.06;5012974;28;20587;-72
2022/05/26 03:59:00;;;;;;;12.07;10.40;;;;;;;14.09;86.40;101425.06;5013376;28;20267;-72
2022/05/26 04:01:27;;;;;;;11.17;10.07;;;;;;;14.11;86.18;101423.41;5012972;28;20190;-72
2022/05/26 04:03:52;;;;;;;13.30;9.40;;;;;;;14.12;86.34;101422.56;5012221;28;20282;-72
2022/05/26 04:06:18;;;;;;;13.17;10.17;;;;;;;14.15;86.05;101430.34;5012879;28;20290;-73
2022/05/26 04:08:43;;;;;;;12.17;9.93;;;;;;;14.18;85.84;101430.34;5008781;28;20271;-72
2022/05/26 04:11:08;;;;;;;10.67;9.57;;;;;;;14.19;86.03;101432.13;4993719;28;20191;-72
2022/05/26 04:13:34;;;;;;;10.53;9.13;;;;;;;14.22;85.76;101429.59;5010111;28;20606;-72
2022/05/26 04:16:00;;;;;;;12.33;9.17;;;;;;;14.24;85.77;101432.19;5013169;28;20712;-72
2022/05/26 04:18:25;;;;;;;11.00;9.90;;;;;;;14.27;86.27;101429.66;5012484;28;20191;-72
2022/05/26 04:20:51;;;;;;;11.23;9.40;;;;;;;14.30;86.51;101433.16;5011919;28;20190;-72
2022/05/26 04:23:16;;;;;;;11.40;8.90;;;;;;;14.36;86.12;101442.69;5012610;28;20203;-72
2022/05/26 04:25:41;;;;;;;10.37;8.90;;;;;;;14.40;85.45;101441.84;5012951;28;20195;-72
2022/05/26 04:28:07;;;;;;;10.60;9.10;;;;;;;14.41;85.63;101447.03;5012954;28;20205;-72
2022/05/26 04:30:33;;;;;;;12.37;9.67;;;;;;;14.43;85.54;101436.75;5012606;28;20274;-72
2022/05/26 04:32:58;;;;;;;10.43;9.43;;;;;;;14.42;85.32;101440.19;5012975;28;20227;-72
2022/05/26 04:35:24;;;;;;;13.17;9.07;;;;;;;14.45;85.83;101435.06;5012394;28;20182;-73
2022/05/26 04:37:49;;;;;;;10.80;9.23;;;;;;;14.45;85.50;101435.91;5011472;28;20373;-72
2022/05/26 04:40:15;;;;;;;10.67;9.07;;;;;;;14.47;85.88;101439.41;5011193;28;20657;-72
2022/05/26 04:42:40;;;;;;;10.77;9.40;;;;;;;14.53;85.16;101431.75;5013007;28;20203;-72
2022/05/26 04:45:08;;;;;;;12.23;9.23;;;;;;;14.57;84.63;101437.78;5012530;28;20237;-72
2022/05/26 04:47:34;;;;;;;13.73;10.27;;;;;;;14.69;83.19;101443.97;5012318;28;20222;-72
2022/05/26 04:49:59;;;;;;;9.93;8.90;;;;;;;14.73;83.82;101439.72;5012751;28;20167;-72
2022/05/26 04:52:25;;;;;;;12.53;9.30;;;;;;;14.81;83.00;101433.81;5010784;28;20198;-72
2022/05/26 04:54:54;;;;;;;9.60;7.93;;;;;;;14.96;82.83;101440.88;5011202;28;20661;-72
2022/05/26 04:57:22;;;;;;;9.50;8.50;;;;;;;14.88;83.62;101443.31;4998571;28;20298;-72
2022/05/26 04:59:48;;;;;;;13.10;8.97;;;;;;;14.80;83.47;101446.69;4998726;28;20911;-72
2022/05/26 05:02:15;;;;;;;10.83;8.27;;;;;;;14.86;83.29;101447.63;5003299;28;20279;-72
2022/05/26 05:04:42;;;;;;;11.03;8.83;;;;;;;14.93;83.24;101459.75;5001705;28;20198;-72
2022/05/26 05:07:09;;;;;;;12.03;8.60;;;;;;;14.78;83.58;101456.13;4999275;28;20219;-72
2022/05/26 05:09:36;;;;;;;16.17;8.73;;;;;;;14.74;83.33;101462.94;4999464;28;20210;-72
2022/05/26 05:12:03;;;;;;;8.70;7.37;;;;;;;14.82;83.03;101461.31;5000616;28;20270;-72
2022/05/26 05:14:31;;;;;;;10.70;7.83;;;;;;;14.91;83.15;101474.31;4998537;28;20596;-72
2022/05/26 05:16:56;;;;;;;11.37;8.00;;;;;;;14.88;82.39;101478.59;5004124;28;20596;-72
2022/05/26 05:19:21;;;;;;;9.23;8.00;;;;;;;14.99;82.72;101488.19;4999888;28;20216;-72
2022/05/26 05:21:59;;;;;;;9.60;7.60;;;;;;;15.07;82.36;101491.72;5011479;28;20210;-72
2022/05/26 05:24:33;;;;;;;10.17;8.13;;;;;;;15.11;82.13;101493.47;5000111;28;20245;-72
2022/05/26 05:27:06;;;;;;;8.77;7.57;;;;;;;15.14;82.46;101497.81;5001265;28;20715;-72
2022/05/26 05:29:37;;;;;;;11.27;7.20;;;;;;;15.07;82.58;101486.56;5007720;28;20261;-72
2022/05/26 05:32:12;;;;;;;8.90;7.50;;;;;;;15.21;81.90;101492.75;5006683;28;20275;-72
2022/05/26 05:34:43;;;;;;;11.07;7.70;;;;;;;15.17;82.81;101492.69;4992251;28;20195;-72
2022/05/26 05:37:08;;;;;;;10.03;7.60;;;;;;;15.19;82.66;101488.41;5006392;28;20617;-72
2022/05/26 05:39:34;;;;;;;11.90;7.23;;;;;;;15.35;80.78;101490.34;4994174;28;20212;-72
2022/05/26 05:42:00;;;;;;;9.70;7.30;;;;;;;15.36;80.97;101489.47;5001327;28;20266;-72
2022/05/26 05:44:26;;;;;;;9.10;6.80;;;;;;;15.50;79.83;101488.78;4996373;28;20299;-72
2022/05/26 05:46:54;;;;;;;10.17;7.03;;;;;;;15.73;79.68;101495.03;4995245;28;20214;-72
2022/05/26 05:49:26;;;;;;;9.90;6.53;;;;;;;15.88;79.24;101494.28;4998176;28;20195;-72
2022/05/26 05:51:52;;;;;;;11.53;6.00;;;;;;;15.62;80.00;101500.94;5001018;28;20219;-72
2022/05/26 05:54:18;;;;;;;8.90;6.60;;;;;;;15.54;79.70;101508.63;4999603;28;20191;-72
2022/05/26 05:56:45;;;;;;;8.57;6.13;;;;;;;15.68;79.20;101508.72;5002083;28;20212;-72
2022/05/26 05:59:10;;;;;;;8.47;6.83;;;;;;;15.69;78.87;101513.03;5008952;28;20581;-72
2022/05/26 06:01:35;;;;;;;10.53;5.83;;;;;;;16.22;76.91;101504.91;5011215;28;20183;-72
2022/05/26 06:04:01;;;;;;;9.93;5.50;;;;;;;16.45;75.76;101503.38;5006162;28;20188;-72
2022/05/26 06:06:26;;;;;;;9.73;5.00;;;;;;;16.27;75.60;101495.47;5001146;28;20207;-71
2022/05/26 06:08:51;;;;;;;8.50;4.53;;;;;;;16.16;75.48;101509.16;4994236;28;20267;-72
2022/05/26 06:11:17;;;;;;;9.60;5.40;;;;;;;15.80;76.19;101508.84;5002499;28;20191;-72
2022/05/26 06:13:42;;;;;;;9.70;4.57;;;;;;;16.10;75.75;101511.69;5000026;28;20176;-72
2022/05/26 06:16:09;;;;;;;8.60;4.43;;;;;;;16.13;74.45;101516.88;5004753;28;20242;-72
2022/05/26 06:18:35;;;;;;;7.10;3.40;;;;;;;16.43;72.07;101512.81;4993642;28;20215;-72
2022/05/26 06:21:06;;;;;;;9.93;4.67;;;;;;;16.83;71.97;101519.06;5000909;28;20815;-72
2022/05/26 06:23:32;;;;;;;9.37;3.90;;;;;;;16.72;72.01;101520.75;5003791;28;20183;-72
2022/05/26 06:25:58;;;;;;;8.53;3.20;;;;;;;16.96;70.15;101513.09;5000368;28;20206;-72
2022/05/26 06:31:08;;;;;;;5.97;2.97;;;;;;;17.07;67.59;101514.88;4995141;28;20182;-72
2022/05/26 06:39:08;;;;;;;8.90;2.90;;;;;;;17.24;67.67;101533.06;5057639;28;20216;-72
2022/05/26 06:44:18;;;;;;;8.47;3.13;;;;;;;17.67;65.50;101537.50;5050632;28;20245;-72
2022/05/26 06:46:44;;;;;;;7.17;2.50;;;;;;;17.92;64.82;101536.69;5041618;28;20304;-72
2022/05/26 06:49:10;;;;;;;7.97;2.50;;;;;;;17.83;63.54;101547.03;5051097;28;20277;-72
2022/05/26 06:51:39;;;;;;;6.80;2.60;;;;;;;17.93;63.42;101541.88;5032678;28;20723;-72
2022/05/26 06:54:05;;;;;;;6.97;2.67;;;;;;;17.87;63.67;101538.41;5059220;28;20199;-72
2022/05/26 06:56:30;;;;;;;6.33;2.37;;;;;;;18.18;61.99;101540.13;5053913;28;20694;-72
2022/05/26 06:58:56;;;;;;;8.93;2.40;;;;;;;17.93;63.37;101536.69;5063792;28;20177;-72
2022/05/26 07:01:21;;;;;;;7.30;2.03;;;;;;;18.00;62.55;101538.41;5050290;28;20209;-72
2022/05/26 07:03:46;;;;;;;7.07;2.13;;;;;;;17.85;62.34;101547.91;5055935;28;20651;-72
2022/05/26 07:06:16;;;;;;;6.20;2.40;;;;;;;17.56;63.51;101545.28;5045695;28;20216;-73
2022/05/26 07:08:46;;;;;;;5.77;1.77;;;;;;;18.05;62.00;101549.66;5046432;28;20643;-73
2022/05/26 07:11:12;;;;;;;8.07;2.30;;;;;;;18.29;62.20;101548.78;5046115;28;20651;-73
2022/05/26 07:13:38;;;;;;;7.10;2.00;;;;;;;18.33;61.37;101550.56;5046513;28;20285;-73
2022/05/26 07:16:04;;;;;;;4.93;2.03;;;;;;;17.86;61.79;101560.00;5045781;28;20936;-74
2022/05/26 07:18:29;;;;;;;8.53;2.07;;;;;;;18.66;60.67;101555.69;5038425;28;20206;-73
2022/05/26 07:20:55;;;;;;;8.17;2.00;;;;;;;18.57;58.65;101555.72;5028244;28;20235;-73
2022/05/26 07:23:21;;;;;;;6.17;2.13;;;;;;;18.95;58.39;101562.53;5045009;28;20675;-74
2022/05/26 07:25:46;;;;;;;4.23;1.90;;;;;;;18.87;57.70;101560.81;5045955;28;20261;-72
2022/05/26 07:28:14;;;;;;;6.90;1.90;;;;;;;18.40;60.30;101565.22;5045433;28;20705;-72
2022/05/26 07:30:40;;;;;;;4.57;1.70;;;;;;;17.82;61.81;101573.84;5028069;28;20208;-72
2022/05/26 07:33:06;;;;;;;7.27;1.97;;;;;;;17.89;60.08;101572.97;5045220;28;20221;-72
2022/05/26 07:35:31;;;;;;;5.30;1.80;;;;;;;17.83;57.98;101579.00;5028012;28;20189;-72
2022/05/26 07:43:27;;;;;;;5.10;1.87;;;;;;;18.17;58.01;101590.28;5041017;28;20174;-73
2022/05/26 07:45:53;;;;;;;5.37;1.60;;;;;;;18.76;56.27;101580.75;5031267;28;20193;-73
2022/05/26 07:48:18;;;;;;;5.80;1.63;;;;;;;18.39;55.29;101585.13;5032677;28;20182;-73
2022/05/26 07:50:43;;;;;;;5.63;1.37;;;;;;;18.01;57.12;101581.59;5032120;28;20631;-73
2022/05/26 07:53:09;;;;;;;5.03;1.57;;;;;;;17.58;55.94;101597.94;5032368;28;20232;-73
2022/05/26 07:55:34;;;;;;;5.80;1.40;;;;;;;17.54;56.89;101596.19;5014496;28;20698;-73
2022/05/26 07:57:59;;;;;;;5.33;1.40;;;;;;;17.51;57.05;101593.63;5014495;28;20592;-73
2022/05/26 08:00:25;;;;;;;5.00;1.93;;;;;;;17.64;57.07;101602.28;5031844;28;20190;-73
2022/05/26 08:02:50;;;;;;;3.97;1.33;;;;;;;18.58;55.41;101592.03;5031791;28;20186;-73
2022/05/26 08:05:16;;;;;;;6.20;1.70;;;;;;;18.54;55.03;101602.41;5014235;28;20236;-73
2022/05/26 08:07:43;;;;;;;3.97;1.27;;;;;;;18.10;55.82;101610.13;5013592;28;20210;-72
2022/05/26 08:10:10;;;;;;;4.57;1.30;;;;;;;18.15;56.88;101610.16;5014080;28;20640;-74
2022/05/26 08:12:35;;;;;;;4.80;1.47;;;;;;;18.15;55.02;101607.56;5031120;28;20221;-73
2022/05/26 08:15:01;;;;;;;6.77;1.63;;;;;;;18.30;54.08;101615.34;5014031;28;20183;-73
2022/05/26 08:17:26;;;;;;;4.23;1.20;;;;;;;18.07;52.22;101611.88;5013218;28;20210;-73
2022/05/26 08:19:52;;;;;;;7.97;1.77;;;;;;;19.13;51.45;101617.00;5031572;28;20195;-73
2022/05/26 08:22:18;;;;;;;3.67;1.33;;;;;;;19.46;49.40;101618.63;5013846;28;20190;-73
2022/05/26 08:24:54;;;;;;;4.27;1.27;;;;;;;19.01;50.96;101621.34;5031227;28;20197;-73
2022/05/26 08:27:21;;;;;;;5.00;1.60;;;;;;;19.54;49.55;101638.53;5013465;28;20311;-73
2022/05/26 08:29:46;;;;;;;3.13;1.17;;;;;;;19.23;49.32;101631.72;5031042;28;20190;-73
2022/05/26 08:32:14;;;;;;;5.13;1.23;;;;;;;18.61;50.04;101632.69;5031340;28;20224;-72
2022/05/26 08:34:39;;;;;;;3.63;1.30;;;;;;;18.34;50.84;101640.47;5030858;28;20286;-73
2022/05/26 08:37:04;;;;;;;3.67;1.30;;;;;;;18.33;50.58;101634.38;5031108;28;20214;-73
2022/05/26 08:39:32;;;;;;;4.03;1.40;;;;;;;19.58;50.26;101639.38;5030781;28;20273;-73
2022/05/26 08:41:58;;;;;;;3.57;1.13;;;;;;;19.70;46.97;101639.31;5031187;28;20166;-72
2022/05/26 08:44:31;;;;;;;3.53;1.57;;;;;;;20.06;46.80;101633.91;5031183;28;20180;-73
2022/05/26 08:47:18;;;;;;;2.83;1.17;;;;;;;19.64;47.97;101635.03;5030729;28;20301;-72
2022/05/26 08:50:05;;;;;;;3.43;0.97;;;;;;;19.41;48.34;101641.19;5031134;28;20186;-73
2022/05/26 08:52:36;;;;;;;4.20;1.10;;;;;;;19.52;48.08;101657.56;5012558;28;20253;-73
2022/05/26 08:55:07;;;;;;;2.80;0.80;;;;;;;19.17;46.17;101655.06;5030234;28;20195;-73
2022/05/26 08:57:36;;;;;;;5.73;1.20;;;;;;;19.43;47.23;101662.84;5030111;28;20206;-73
2022/05/26 09:00:01;;;;;;;5.47;1.23;;;;;;;19.18;47.35;101655.94;5013166;28;20240;-73
2022/05/26 09:02:37;;;;;;;4.87;1.20;;;;;;;19.87;46.53;101660.88;5030471;28;20190;-72
2022/05/26 09:05:11;;;;;;;3.63;1.03;;;;;;;19.91;47.18;101666.09;5030770;28;20182;-73
2022/05/26 09:13:12;;;;;;;3.47;1.20;;;;;;;19.27;47.25;101667.22;5031402;28;20199;-73
2022/05/26 09:15:39;;;;;;;3.43;1.10;;;;;;;18.96;48.21;101662.91;5018128;28;20690;-73
2022/05/26 09:18:20;;;;;;;4.40;1.30;;;;;;;19.01;49.09;101679.34;5030034;28;20225;-73
2022/05/26 09:20:48;;;;;;;4.60;1.13;;;;;;;18.79;46.62;101677.63;5029942;28;20218;-73
2022/05/26 09:23:24;;;;;;;5.97;1.20;;;;;;;18.83;45.93;101686.31;5030210;28;20714;-74
2022/05/26 09:25:53;;;;;;;3.37;0.83;;;;;;;18.99;45.66;101686.28;5012062;28;20201;-73
2022/05/26 09:28:37;;;;;;;4.93;1.10;;;;;;;19.23;46.27;101685.38;5033101;28;20197;-73
2022/05/26 09:31:33;;;;;;;2.60;0.97;;;;;;;19.82;44.75;101691.25;5044212;28;20185;-74
2022/05/26 09:34:09;;;;;;;2.40;0.90;;;;;;;20.26;43.02;101697.97;5010439;28;20286;-73
2022/05/26 09:36:37;;;;;;;3.93;1.17;;;;;;;19.98;44.67;101693.75;5009528;28;20779;-73
2022/05/26 09:39:07;;;;;;;3.60;0.87;;;;;;;20.86;43.74;101694.03;5028296;28;20248;-74
2022/05/26 09:41:41;;;;;;;5.63;1.10;;;;;;;21.43;41.89;101696.94;5029364;28;20464;-74
2022/05/26 09:44:23;;;;;;;3.30;0.90;;;;;;;21.05;43.03;101699.09;5045296;28;20175;-73
2022/05/26 09:46:52;;;;;;;3.03;1.17;;;;;;;21.61;42.51;101694.13;5029344;28;20209;-73
2022/05/26 09:49:23;;;;;;;2.73;0.97;;;;;;;21.83;41.93;101705.22;5029805;28;20208;-73
2022/05/26 09:51:49;;;;;;;3.30;0.80;;;;;;;21.91;41.95;101678.13;5028995;28;20210;-74
2022/05/26 09:54:23;;;;;;;2.90;0.97;;;;;;;21.66;42.03;101701.91;5029250;28;20190;-73
2022/05/26 09:56:49;;;;;;;3.97;1.00;;;;;;;21.37;42.75;101704.00;5029392;28;20214;-73
2022/05/26 09:59:44;;;;;;;4.97;1.00;;;;;;;21.32;42.36;101705.75;5029091;28;20193;-73
2022/05/26 10:02:25;;;;;;;3.53;1.00;;;;;;;21.29;42.48;101703.19;5029517;28;20186;-73
2022/05/26 10:05:09;;;;;;;2.80;1.10;;;;;;;21.78;43.03;101704.38;5029102;28;20252;-73
2022/05/26 10:07:55;;;;;;;2.10;1.03;;;;;;;22.14;41.49;101704.75;5029147;28;20215;-73
2022/05/26 10:10:29;;;;;;;2.33;1.10;;;;;;;21.99;41.76;101696.28;5028879;28;20182;-73
2022/05/26 10:13:31;;;;;;;4.10;1.10;;;;;;;21.60;42.10;101715.03;5029281;28;20249;-73
2022/05/26 10:16:27;;;;;;;3.10;1.10;;;;;;;20.76;43.13;101721.00;4995135;28;20225;-73
2022/05/26 10:19:06;;;;;;;5.07;1.57;;;;;;;20.59;42.27;101728.97;5022164;28;20671;-74
2022/05/26 10:21:57;;;;;;;4.27;0.93;;;;;;;20.25;42.82;101722.25;5029087;28;20182;-74
2022/05/26 10:24:53;;;;;;;2.97;1.20;;;;;;;20.68;42.89;101723.69;5011492;28;20195;-73
2022/05/26 10:27:36;;;;;;;3.87;1.00;;;;;;;21.13;42.88;101720.72;5028432;28;20269;-73
2022/05/26 10:30:23;;;;;;;1.70;1.00;;;;;;;21.06;42.61;101729.47;5029203;28;20179;-73
2022/05/26 10:33:22;;;;;;;2.47;0.83;;;;;;;20.98;41.70;101722.59;5028818;28;20218;-73
2022/05/26 10:36:11;;;;;;;2.03;1.00;;;;;;;21.26;42.06;101719.72;5011344;28;20193;-73
2022/05/26 10:39:21;;;;;;;4.60;1.13;;;;;;;21.33;42.14;101723.97;5028473;28;20927;-73
2022/05/26 10:41:54;;;;;;;4.23;1.17;;;;;;;20.79;43.21;101713.19;5017421;28;20198;-72
2022/05/26 10:44:45;;;;;;;2.37;0.80;;;;;;;21.05;42.76;101726.91;5012113;28;20332;-72
2022/05/26 10:47:39;;;;;;;3.63;1.10;;;;;;;21.10;42.58;101723.34;5044628;28;20293;-72
2022/05/26 10:50:16;;;;;;;4.43;1.60;;;;;;;20.85;42.92;101719.22;5030672;28;20239;-72
2022/05/26 10:52:48;;;;;;;4.50;1.07;;;;;;;21.71;42.32;101729.69;5027709;28;20208;-72
2022/05/26 10:55:21;;;;;;;3.47;1.40;;;;;;;21.69;42.78;101723.63;5027828;28;20206;-72
2022/05/26 10:57:53;;;;;;;3.77;1.20;;;;;;;21.33;42.75;101725.75;5026963;28;20633;-72
2022/05/26 11:00:23;;;;;;;3.13;1.33;;;;;;;22.37;41.99;101717.47;5029006;28;20194;-72
2022/05/26 11:02:58;;;;;;;4.73;1.33;;;;;;;21.99;41.50;101725.84;5028707;28;20660;-73
2022/05/26 11:05:48;;;;;;;3.10;0.90;;;;;;;21.58;41.38;101727.19;5018099;28;20193;-72
2022/05/26 11:08:31;;;;;;;3.33;1.10;;;;;;;21.66;41.36;101734.03;5028015;28;20187;-72
2022/05/26 11:11:07;;;;;;;5.87;1.57;;;;;;;21.36;41.56;101734.38;5010120;28;20313;-72
2022/05/26 11:13:44;;;;;;;4.00;1.10;;;;;;;21.69;42.41;101725.38;5017860;28;20217;-72
2022/05/26 11:19:23;;;;;;;2.90;1.13;;;;;;;21.02;44.30;101751.22;5029200;28;20182;-72
2022/05/26 11:21:50;;;;;;;3.83;1.10;;;;;;;21.13;44.16;101745.91;5013969;28;20213;-72
2022/05/26 11:24:15;;;;;;;3.60;0.83;;;;;;;22.00;43.14;101740.63;5031228;28;20564;-72
2022/05/26 11:26:49;;;;;;;2.50;1.00;;;;;;;22.00;42.80;101747.56;5013096;28;20297;-72
2022/05/26 11:29:21;;;;;;;4.63;1.10;;;;;;;21.84;43.22;101736.47;5031842;28;20200;-72
2022/05/26 11:38:20;;;;;;;4.90;1.17;;;;;;;19.70;46.33;101748.47;5011806;28;20183;-72
2022/05/26 11:41:03;;;;;;;3.17;1.20;;;;;;;20.04;45.34;101752.69;5010369;28;20191;-72
2022/05/26 11:43:33;;;;;;;2.70;1.00;;;;;;;20.66;44.79;101740.19;5010586;28;20260;-73
2022/05/26 11:45:59;;;;;;;4.00;1.03;;;;;;;20.85;44.59;101734.84;5012401;28;20262;-72
2022/05/26 11:48:30;;;;;;;2.90;1.20;;;;;;;20.92;43.76;101731.31;5011736;28;20274;-72
2022/05/26 11:51:00;;;;;;;3.83;1.10;;;;;;;20.98;43.49;101736.50;5012475;28;20245;-72
2022/05/26 11:53:48;;;;;;;4.37;1.07;;;;;;;20.58;44.00;101748.06;5013417;28;20233;-72
2022/05/26 11:56:25;;;;;;;4.03;0.93;;;;;;;20.10;44.92;101742.28;5025953;28;20234;-72
2022/05/26 11:59:41;;;;;;;3.50;0.80;;;;;;;19.87;46.81;101742.38;5017503;28;20205;-72
2022/05/26 12:02:07;;;;;;;4.50;1.00;;;;;;;19.67;46.50;101732.91;5033426;28;20186;-72
2022/05/26 12:04:34;;;;;;;6.07;1.03;;;;;;;19.69;46.42;101739.84;5031045;28;20202;-72
2022/05/26 12:07:34;;;;;;;6.23;1.60;;;;;;;19.52;47.39;101725.13;5030866;28;20233;-72
2022/05/26 12:10:01;;;;;;;4.23;1.07;;;;;;;19.28;45.33;101730.41;5031133;28;20194;-72
2022/05/26 12:12:26;;;;;;;4.37;1.00;;;;;;;19.47;45.90;101737.28;5030398;28;20252;-72
2022/05/26 12:14:54;;;;;;;6.13;1.10;;;;;;;19.36;45.78;101746.84;5030959;28;20202;-72
2022/05/26 12:17:53;;;;;;;3.10;0.80;;;;;;;19.52;45.37;101740.72;5027664;28;20247;-72
2022/05/26 12:20:18;;;;;;;3.03;0.83;;;;;;;19.73;45.56;101744.16;5015269;28;20194;-72
2022/05/26 12:22:47;;;;;;;1.73;0.90;;;;;;;19.64;45.65;101746.78;5012846;28;20725;-72
2022/05/26 12:25:27;;;;;;;3.63;1.20;;;;;;;19.47;46.19;101750.28;5030870;28;20191;-72